Time;durP1;ratioP1;P1;durP2;ratioP2;P2;SDS_P1;SDS_P2;PMS_P1;PMS_P2;Temp;Humidity;BMP_temperature;BMP_pressure;BME280_temperature;BME280_humidity;BME280_pressure;Samples;Min_cycle;Max_cycle;Signal;HPM_P1;HPM_P2
2023/01/10 00:01:30;;;;;;;1.93;1.30;;;;;;;;;;4953514;28;20214;-88
2023/01/10 00:04:34;;;;;;;1.67;1.20;;;;;;;;;;4964922;28;20574;-88
2023/01/10 00:07:38;;;;;;;1.43;1.10;;;;;;;;;;4975667;28;20700;-88
2023/01/10 00:10:43;;;;;;;3.13;1.23;;;;;;;;;;4974571;28;20210;-88
2023/01/10 00:13:47;;;;;;;1.67;1.20;;;;;;;;;;4963848;28;20196;-88
2023/01/10 00:16:51;;;;;;;1.33;1.20;;;;;;;;;;4963398;28;20218;-88
2023/01/10 00:19:55;;;;;;;1.20;1.00;;;;;;;;;;4974737;28;20199;-88
2023/01/10 00:22:59;;;;;;;2.20;1.13;;;;;;;;;;4952707;28;20195;-88
2023/01/10 00:26:03;;;;;;;2.10;1.13;;;;;;;;;;4974520;28;20179;-88
2023/01/10 00:29:07;;;;;;;1.67;1.30;;;;;;;;;;4952294;28;20199;-87
2023/01/10 00:32:12;;;;;;;1.60;1.37;;;;;;;;;;4951887;28;20219;-87
2023/01/10 00:35:16;;;;;;;1.23;1.10;;;;;;;;;;4962697;28;20218;-87
2023/01/10 00:38:20;;;;;;;1.60;1.33;;;;;;;;;;4963399;28;20179;-87
2023/01/10 00:44:46;;;;;;;1.10;0.97;;;;;;;;;;4966035;28;20210;-87
2023/01/10 00:47:51;;;;;;;1.63;0.90;;;;;;;;;;4977679;28;20179;-88
2023/01/10 00:50:55;;;;;;;1.37;1.00;;;;;;;;;;4966561;28;20218;-87
2023/01/10 00:54:00;;;;;;;1.10;1.00;;;;;;;;;;4955354;28;20195;-88
2023/01/10 00:57:04;;;;;;;2.50;1.07;;;;;;;;;;4954885;28;20218;-88
2023/01/10 01:00:09;;;;;;;3.07;1.20;;;;;;;;;;4966347;28;20183;-88
2023/01/10 01:03:13;;;;;;;3.23;1.43;;;;;;;;;;4966416;28;20639;-88
2023/01/10 01:06:17;;;;;;;1.20;1.10;;;;;;;;;;4966022;28;20534;-87
2023/01/10 01:09:21;;;;;;;1.40;1.20;;;;;;;;;;4966202;28;20183;-87
2023/01/10 01:12:26;;;;;;;1.87;1.23;;;;;;;;;;4955333;28;20210;-87
2023/01/10 01:15:30;;;;;;;2.70;1.10;;;;;;;;;;4966309;28;20212;-87
2023/01/10 01:18:34;;;;;;;1.43;1.30;;;;;;;;;;4966220;28;20550;-88
2023/01/10 01:21:38;;;;;;;1.50;1.10;;;;;;;;;;4977564;28;20214;-89
2023/01/10 01:24:43;;;;;;;2.77;1.10;;;;;;;;;;4965554;28;20190;-87
2023/01/10 01:27:46;;;;;;;1.10;1.00;;;;;;;;;;4965758;28;20190;-88
2023/01/10 01:30:50;;;;;;;1.10;1.00;;;;;;;;;;4976705;28;20585;-87
2023/01/10 01:33:55;;;;;;;1.53;1.20;;;;;;;;;;4965661;28;20183;-87
2023/01/10 01:37:02;;;;;;;2.90;1.10;;;;;;;;;;4965558;28;20674;-88
2023/01/10 01:40:11;;;;;;;2.10;1.20;;;;;;;;;;4965639;28;20550;-87
2023/01/10 01:43:23;;;;;;;1.80;1.30;;;;;;;;;;4976788;28;20199;-88
2023/01/10 01:46:28;;;;;;;2.17;1.33;;;;;;;;;;4965462;28;20179;-87
2023/01/10 01:49:39;;;;;;;1.90;1.20;;;;;;;;;;4965408;28;20175;-88
2023/01/10 01:52:44;;;;;;;2.37;1.17;;;;;;;;;;4964029;28;20183;-87
2023/01/10 01:55:50;;;;;;;1.77;1.20;;;;;;;;;;4975905;28;20671;-87
2023/01/10 01:59:04;;;;;;;3.37;1.13;;;;;;;;;;4954181;28;20179;-87
2023/01/10 02:02:17;;;;;;;1.30;1.03;;;;;;;;;;4954408;28;20558;-88
2023/01/10 02:05:23;;;;;;;1.93;1.37;;;;;;;;;;4965283;28;20539;-88
2023/01/10 02:08:27;;;;;;;1.37;1.20;;;;;;;;;;4965160;28;20546;-87
2023/01/10 02:11:32;;;;;;;3.87;1.50;;;;;;;;;;4953939;28;20218;-87
2023/01/10 02:14:37;;;;;;;1.87;1.30;;;;;;;;;;4965195;28;20194;-88
2023/01/10 02:17:41;;;;;;;2.50;1.83;;;;;;;;;;4953967;28;20219;-87
2023/01/10 02:21:05;;;;;;;3.17;1.60;;;;;;;;;;4975928;28;20218;-88
2023/01/10 02:24:47;;;;;;;2.70;1.70;;;;;;;;;;4976025;28;20183;-87
2023/01/10 02:28:28;;;;;;;2.87;1.53;;;;;;;;;;4965132;28;20211;-88
2023/01/10 02:31:56;;;;;;;3.20;1.57;;;;;;;;;;4965241;28;20574;-88
2023/01/10 02:35:18;;;;;;;2.23;1.70;;;;;;;;;;4953929;28;20179;-87
2023/01/10 02:38:58;;;;;;;5.10;1.80;;;;;;;;;;4953623;28;20645;-88
2023/01/10 02:42:08;;;;;;;2.23;1.57;;;;;;;;;;4956814;28;20215;-88
2023/01/10 02:45:23;;;;;;;2.07;1.50;;;;;;;;;;4953437;28;20203;-87
2023/01/10 02:48:27;;;;;;;2.00;1.50;;;;;;;;;;4953404;28;20179;-88
2023/01/10 02:51:32;;;;;;;4.00;1.80;;;;;;;;;;4953293;28;20210;-87
2023/01/10 02:54:37;;;;;;;1.67;1.50;;;;;;;;;;4953184;28;20202;-87
2023/01/10 02:58:00;;;;;;;1.80;1.60;;;;;;;;;;4963792;28;20218;-87
2023/01/10 03:01:32;;;;;;;1.43;1.33;;;;;;;;;;4964032;28;20227;-88
2023/01/10 03:05:07;;;;;;;1.37;1.27;;;;;;;;;;4953081;28;20179;-87
2023/01/10 03:08:32;;;;;;;2.47;1.30;;;;;;;;;;4964004;28;20175;-87
2023/01/10 03:11:41;;;;;;;2.80;1.70;;;;;;;;;;4952528;28;20222;-87
2023/01/10 03:14:46;;;;;;;3.07;1.60;;;;;;;;;;4964060;28;20183;-88
2023/01/10 03:17:55;;;;;;;3.37;1.30;;;;;;;;;;4952554;28;20214;-87
2023/01/10 03:21:03;;;;;;;3.27;1.57;;;;;;;;;;4952499;28;20219;-88
2023/01/10 03:24:14;;;;;;;2.80;1.60;;;;;;;;;;4952791;28;20187;-88
2023/01/10 03:27:27;;;;;;;4.27;1.63;;;;;;;;;;4974416;28;20175;-87
2023/01/10 03:30:45;;;;;;;1.40;1.30;;;;;;;;;;4963200;28;20214;-87
2023/01/10 03:33:50;;;;;;;2.93;1.60;;;;;;;;;;4963449;28;20548;-87
2023/01/10 03:37:14;;;;;;;5.57;1.73;;;;;;;;;;4952376;28;20209;-88
2023/01/10 03:40:35;;;;;;;1.97;1.77;;;;;;;;;;4962974;28;20683;-88
2023/01/10 03:47:16;;;;;;;2.00;1.80;;;;;;;;;;4963117;28;20183;-88
2023/01/10 03:50:22;;;;;;;1.60;1.50;;;;;;;;;;4974790;28;20793;-88
2023/01/10 03:53:26;;;;;;;2.63;1.33;;;;;;;;;;4963135;28;20186;-88
2023/01/10 03:56:42;;;;;;;1.40;1.30;;;;;;;;;;4952008;28;20211;-88
2023/01/10 03:59:51;;;;;;;2.47;1.67;;;;;;;;;;4962996;28;20187;-87
2023/01/10 04:02:57;;;;;;;2.30;1.63;;;;;;;;;;4951803;28;20195;-88
2023/01/10 04:06:03;;;;;;;2.37;2.13;;;;;;;;;;4952080;28;20195;-88
2023/01/10 04:09:07;;;;;;;2.30;1.90;;;;;;;;;;4974215;28;20179;-88
2023/01/10 04:12:12;;;;;;;2.00;1.80;;;;;;;;;;4962448;28;20215;-88
2023/01/10 04:15:17;;;;;;;2.00;1.70;;;;;;;;;;4951961;28;20535;-89
2023/01/10 04:18:21;;;;;;;2.47;2.03;;;;;;;;;;4955586;28;20228;-87
2023/01/10 04:21:25;;;;;;;2.10;1.90;;;;;;;;;;4955685;28;20210;-88
2023/01/10 04:24:29;;;;;;;2.17;1.70;;;;;;;;;;4955330;28;20179;-87
2023/01/10 04:27:33;;;;;;;2.77;1.83;;;;;;;;;;4966452;28;20183;-87
2023/01/10 04:30:38;;;;;;;2.13;1.77;;;;;;;;;;4955223;28;20214;-88
2023/01/10 04:33:42;;;;;;;2.13;1.90;;;;;;;;;;4966239;28;20183;-87
2023/01/10 04:36:47;;;;;;;2.10;1.73;;;;;;;;;;4955842;28;20582;-88
2023/01/10 04:39:50;;;;;;;3.47;2.17;;;;;;;;;;4966658;28;20670;-88
2023/01/10 04:42:54;;;;;;;3.60;2.47;;;;;;;;;;4978592;28;20666;-87
2023/01/10 04:45:59;;;;;;;4.40;2.30;;;;;;;;;;4978778;28;20179;-88
2023/01/10 04:49:03;;;;;;;2.43;2.03;;;;;;;;;;4967179;28;20175;-88
2023/01/10 04:52:07;;;;;;;3.40;2.40;;;;;;;;;;4955901;28;20577;-88
2023/01/10 04:55:11;;;;;;;2.30;2.10;;;;;;;;;;4967100;28;20178;-88
2023/01/10 04:58:15;;;;;;;2.93;2.30;;;;;;;;;;4966425;28;20207;-87
2023/01/10 05:01:22;;;;;;;3.20;2.63;;;;;;;;;;4955428;28;20210;-88
2023/01/10 05:04:26;;;;;;;3.13;2.80;;;;;;;;;;4955444;28;20187;-87
2023/01/10 05:07:30;;;;;;;3.00;2.50;;;;;;;;;;4966306;28;20194;-87
2023/01/10 05:10:34;;;;;;;3.10;2.53;;;;;;;;;;4955088;28;20581;-88
2023/01/10 05:13:40;;;;;;;2.63;2.43;;;;;;;;;;4955076;28;20179;-87
2023/01/10 05:16:44;;;;;;;3.27;2.97;;;;;;;;;;4954866;28;20222;-88
2023/01/10 05:19:48;;;;;;;3.43;3.13;;;;;;;;;;4954875;28;20179;-88
2023/01/10 05:22:52;;;;;;;3.10;2.53;;;;;;;;;;4976622;28;20179;-88
2023/01/10 05:25:56;;;;;;;3.53;2.57;;;;;;;;;;4965558;28;20199;-88
2023/01/10 05:29:00;;;;;;;2.73;2.53;;;;;;;;;;4954212;28;20175;-88
2023/01/10 05:32:04;;;;;;;4.37;3.10;;;;;;;;;;4954119;28;20222;-88
2023/01/10 05:35:09;;;;;;;2.97;2.67;;;;;;;;;;4965356;28;20186;-87
2023/01/10 05:38:13;;;;;;;3.80;3.00;;;;;;;;;;4965249;28;20237;-88
2023/01/10 05:41:17;;;;;;;3.27;2.97;;;;;;;;;;4965146;28;20214;-88
2023/01/10 05:44:21;;;;;;;3.63;2.63;;;;;;;;;;4953619;28;20206;-88
2023/01/10 05:47:26;;;;;;;3.33;2.90;;;;;;;;;;4954111;28;20171;-87
2023/01/10 05:50:30;;;;;;;3.70;2.87;;;;;;;;;;4953873;28;20337;-87
2023/01/10 05:53:37;;;;;;;3.00;2.67;;;;;;;;;;4954299;28;20191;-87
2023/01/10 05:56:41;;;;;;;3.83;3.00;;;;;;;;;;4953563;28;20179;-88
2023/01/10 05:59:46;;;;;;;3.40;2.93;;;;;;;;;;4964570;28;20179;-88
2023/01/10 06:02:53;;;;;;;3.63;2.50;;;;;;;;;;4975511;28;20179;-88
2023/01/10 06:05:57;;;;;;;3.43;2.50;;;;;;;;;;4964682;28;20179;-88
2023/01/10 06:09:01;;;;;;;4.17;2.60;;;;;;;;;;4954009;28;20517;-88
2023/01/10 06:12:05;;;;;;;2.97;2.53;;;;;;;;;;4953208;28;20222;-87
2023/01/10 06:15:10;;;;;;;3.30;3.00;;;;;;;;;;4953051;28;20179;-87
2023/01/10 06:18:15;;;;;;;2.87;2.63;;;;;;;;;;4964311;28;20203;-87
2023/01/10 06:21:19;;;;;;;4.43;2.60;;;;;;;;;;4953274;28;20210;-88
2023/01/10 06:24:24;;;;;;;3.53;3.03;;;;;;;;;;4975038;28;20179;-88
2023/01/10 06:27:28;;;;;;;2.70;2.50;;;;;;;;;;4963974;28;20635;-88
2023/01/10 06:30:34;;;;;;;3.70;2.80;;;;;;;;;;4964316;28;20214;-88
2023/01/10 06:33:40;;;;;;;2.47;2.27;;;;;;;;;;4963845;28;20179;-88
2023/01/10 06:36:44;;;;;;;2.83;2.53;;;;;;;;;;4963551;28;20202;-88
2023/01/10 06:39:50;;;;;;;3.37;3.07;;;;;;;;;;4974540;28;20196;-88
2023/01/10 06:42:54;;;;;;;3.07;2.63;;;;;;;;;;4952838;28;20179;-87
2023/01/10 06:45:58;;;;;;;3.73;2.77;;;;;;;;;;4963559;28;20194;-88
2023/01/10 06:49:02;;;;;;;4.13;2.60;;;;;;;;;;4952640;28;20199;-88
2023/01/10 06:52:06;;;;;;;4.63;4.20;;;;;;;;;;4963701;28;20589;-88
2023/01/10 06:55:10;;;;;;;3.60;3.30;;;;;;;;;;4960502;28;20178;-87
2023/01/10 06:58:17;;;;;;;6.67;6.07;;;;;;;;;;4963288;28;20678;-87
2023/01/10 07:01:21;;;;;;;3.90;3.47;;;;;;;;;;4952383;28;20214;-87
2023/01/10 07:04:25;;;;;;;3.83;3.17;;;;;;;;;;4963301;28;20175;-88
2023/01/10 07:07:29;;;;;;;3.17;2.70;;;;;;;;;;4963098;28;20187;-88
2023/01/10 07:10:34;;;;;;;2.60;2.40;;;;;;;;;;4963527;28;20551;-88
2023/01/10 07:13:39;;;;;;;3.00;2.63;;;;;;;;;;4952293;28;20183;-88
2023/01/10 07:16:43;;;;;;;3.20;2.87;;;;;;;;;;4952406;28;20524;-88
2023/01/10 07:19:47;;;;;;;3.23;2.93;;;;;;;;;;4963206;28;20195;-88
2023/01/10 07:22:56;;;;;;;4.00;3.03;;;;;;;;;;4951984;28;20175;-88
2023/01/10 07:26:05;;;;;;;3.20;2.90;;;;;;;;;;4963010;28;20186;-88
2023/01/10 07:29:09;;;;;;;4.40;4.00;;;;;;;;;;4951982;28;20171;-88
2023/01/10 07:32:14;;;;;;;4.83;3.50;;;;;;;;;;4951672;28;20219;-88
2023/01/10 07:35:18;;;;;;;3.10;2.80;;;;;;;;;;4962872;28;20187;-88
2023/01/10 07:38:22;;;;;;;3.03;2.73;;;;;;;;;;4973982;28;20214;-88
2023/01/10 07:41:26;;;;;;;3.57;2.60;;;;;;;;;;4951899;28;20215;-88
2023/01/10 07:44:31;;;;;;;3.40;2.80;;;;;;;;;;4973822;28;20570;-88
2023/01/10 07:47:35;;;;;;;3.30;3.00;;;;;;;;;;4951861;28;20179;-88
2023/01/10 07:50:39;;;;;;;3.80;3.30;;;;;;;;;;4952854;28;20207;-87
2023/01/10 07:53:43;;;;;;;5.97;3.40;;;;;;;;;;4967975;28;20187;-87
2023/01/10 07:56:48;;;;;;;5.13;3.67;;;;;;;;;;4967286;28;20182;-88
2023/01/10 07:59:52;;;;;;;6.17;3.90;;;;;;;;;;4956370;28;20175;-87
2023/01/10 08:02:56;;;;;;;4.73;3.93;;;;;;;;;;4955184;28;20186;-88
2023/01/10 08:06:04;;;;;;;6.67;3.87;;;;;;;;;;4955634;28;20183;-88
2023/01/10 08:09:08;;;;;;;4.53;3.30;;;;;;;;;;4957336;28;20662;-88
2023/01/10 08:12:12;;;;;;;3.97;3.50;;;;;;;;;;4957215;28;20222;-87
2023/01/10 08:15:16;;;;;;;8.33;3.47;;;;;;;;;;4954711;28;20174;-88
2023/01/10 08:18:22;;;;;;;3.23;2.93;;;;;;;;;;4966926;28;20202;-88
2023/01/10 08:21:25;;;;;;;4.30;3.33;;;;;;;;;;4966099;28;20578;-88
2023/01/10 08:24:30;;;;;;;5.03;3.53;;;;;;;;;;4955496;28;20187;-88
2023/01/10 08:27:34;;;;;;;5.20;3.70;;;;;;;;;;4954617;28;20175;-88
2023/01/10 08:30:38;;;;;;;3.73;2.70;;;;;;;;;;4977328;28;20562;-88
2023/01/10 08:33:43;;;;;;;6.67;3.17;;;;;;;;;;4951473;28;20195;-88
2023/01/10 08:36:53;;;;;;;5.50;3.17;;;;;;;;;;4963294;28;20179;-88
2023/01/10 08:39:57;;;;;;;3.17;2.47;;;;;;;;;;4965070;28;20542;-88
2023/01/10 08:43:05;;;;;;;6.50;3.23;;;;;;;;;;4965893;28;20183;-87
2023/01/10 08:46:09;;;;;;;3.67;2.40;;;;;;;;;;4964982;28;20179;-88
2023/01/10 08:49:13;;;;;;;7.30;3.33;;;;;;;;;;4965263;28;20179;-87
2023/01/10 08:52:17;;;;;;;5.03;2.40;;;;;;;;;;4965125;28;20214;-87
2023/01/10 08:55:21;;;;;;;4.37;2.33;;;;;;;;;;4954360;28;20184;-88
2023/01/10 08:58:26;;;;;;;5.17;3.50;;;;;;;;;;4965709;28;20203;-88
2023/01/10 09:01:30;;;;;;;2.83;1.93;;;;;;;;;;4959806;28;20215;-88
2023/01/10 09:04:34;;;;;;;3.63;2.27;;;;;;;;;;4962707;28;20175;-88
2023/01/10 09:07:40;;;;;;;3.73;2.00;;;;;;;;;;4974702;28;20187;-88
2023/01/10 09:10:43;;;;;;;5.30;2.10;;;;;;;;;;4985046;28;20210;-88
2023/01/10 09:13:49;;;;;;;3.83;2.03;;;;;;;;;;4973790;28;20186;-88
2023/01/10 09:16:53;;;;;;;2.53;1.83;;;;;;;;;;4962377;28;20183;-87
2023/01/10 09:19:58;;;;;;;6.27;2.73;;;;;;;;;;4962034;28;20175;-88
2023/01/10 09:23:09;;;;;;;3.17;1.90;;;;;;;;;;4961417;28;20198;-88
2023/01/10 09:26:13;;;;;;;5.97;2.20;;;;;;;;;;4971529;28;20174;-88
2023/01/10 09:29:18;;;;;;;4.73;2.20;;;;;;;;;;4971238;28;20171;-88
2023/01/10 09:32:22;;;;;;;3.73;2.27;;;;;;;;;;4959688;28;20210;-88
2023/01/10 09:35:28;;;;;;;7.17;2.50;;;;;;;;;;4970009;28;20179;-88
2023/01/10 09:38:32;;;;;;;4.70;2.30;;;;;;;;;;4958324;28;20573;-89
2023/01/10 09:41:51;;;;;;;5.43;2.17;;;;;;;;;;4968833;28;20211;-88
2023/01/10 09:45:30;;;;;;;4.67;2.43;;;;;;;;;;4957098;28;20223;-88
2023/01/10 09:48:47;;;;;;;9.60;2.80;;;;;;;;;;4957072;28;20191;-88
2023/01/10 09:51:55;;;;;;;3.57;2.47;;;;;;;;;;4956441;28;20222;-88
2023/01/10 09:55:13;;;;;;;5.67;3.00;;;;;;;;;;4956339;28;20202;-88
2023/01/10 09:58:19;;;;;;;3.77;2.60;;;;;;;;;;4966751;28;20570;-88
2023/01/10 10:01:28;;;;;;;7.77;2.43;;;;;;;;;;4955122;28;20210;-88
2023/01/10 10:04:36;;;;;;;4.73;2.50;;;;;;;;;;4955664;28;20643;-88
2023/01/10 10:07:40;;;;;;;5.33;2.93;;;;;;;;;;4955504;28;20187;-88
2023/01/10 10:11:20;;;;;;;8.37;2.30;;;;;;;;;;4976942;28;20210;-88
2023/01/10 10:14:50;;;;;;;5.70;2.70;;;;;;;;;;4954523;28;20195;-88
2023/01/10 10:18:17;;;;;;;7.40;2.80;;;;;;;;;;4965777;28;20183;-88
2023/01/10 10:21:40;;;;;;;4.57;2.43;;;;;;;;;;4954314;28;20579;-88
2023/01/10 10:24:54;;;;;;;6.13;2.57;;;;;;;;;;4954276;28;20558;-88
2023/01/10 10:28:32;;;;;;;7.57;2.60;;;;;;;;;;4954407;28;20179;-88
2023/01/10 10:31:55;;;;;;;5.73;3.23;;;;;;;;;;4964714;28;20218;-88
2023/01/10 10:35:06;;;;;;;4.27;2.53;;;;;;;;;;4975992;28;20179;-88
2023/01/10 10:38:20;;;;;;;6.27;2.47;;;;;;;;;;4964468;28;20187;-88
2023/01/10 10:41:33;;;;;;;7.30;2.63;;;;;;;;;;4953513;28;20211;-88
2023/01/10 10:44:55;;;;;;;4.10;2.27;;;;;;;;;;4964609;28;20210;-89
2023/01/10 10:48:11;;;;;;;5.43;2.23;;;;;;;;;;4965207;28;20183;-88
2023/01/10 10:51:41;;;;;;;7.10;2.30;;;;;;;;;;4953773;28;20214;-88
2023/01/10 10:54:45;;;;;;;7.47;2.20;;;;;;;;;;4953631;28;20182;-88
2023/01/10 10:57:49;;;;;;;3.37;2.00;;;;;;;;;;4964454;28;20642;-88
2023/01/10 11:00:53;;;;;;;8.57;2.50;;;;;;;;;;4953063;28;20210;-88
2023/01/10 11:04:01;;;;;;;6.77;2.10;;;;;;;;;;4953556;28;20178;-88
2023/01/10 11:07:10;;;;;;;4.67;2.37;;;;;;;;;;4975513;28;20195;-88
2023/01/10 11:13:33;;;;;;;5.17;1.80;;;;;;;;;;4964129;28;20179;-87
2023/01/10 11:16:43;;;;;;;5.47;2.23;;;;;;;;;;4953245;28;20187;-88
2023/01/10 11:20:01;;;;;;;5.50;1.90;;;;;;;;;;4974968;28;20207;-88
2023/01/10 11:23:06;;;;;;;6.47;1.70;;;;;;;;;;4953070;28;20528;-88
2023/01/10 11:26:22;;;;;;;6.43;1.43;;;;;;;;;;4953210;28;20496;-87
2023/01/10 11:29:41;;;;;;;4.40;1.60;;;;;;;;;;4953003;28;20411;-88
2023/01/10 11:32:53;;;;;;;5.37;1.57;;;;;;;;;;4952690;28;20199;-88
2023/01/10 11:36:03;;;;;;;4.70;1.43;;;;;;;;;;4952869;28;20241;-87
2023/01/10 11:39:13;;;;;;;7.23;2.27;;;;;;;;;;4964186;28;20219;-88
2023/01/10 11:42:23;;;;;;;3.63;1.60;;;;;;;;;;4952600;28;20215;-88
2023/01/10 11:45:32;;;;;;;5.33;1.40;;;;;;;;;;4963415;28;20194;-88
2023/01/10 11:49:18;;;;;;;6.30;1.63;;;;;;;;;;4964204;28;20179;-87
2023/01/10 11:52:26;;;;;;;3.43;1.27;;;;;;;;;;4944809;28;20219;-87
2023/01/10 11:55:33;;;;;;;8.33;1.40;;;;;;;;;;4952297;28;20175;-87
2023/01/10 11:58:39;;;;;;;4.93;1.40;;;;;;;;;;4952803;28;20571;-87
2023/01/10 12:01:59;;;;;;;6.17;1.47;;;;;;;;;;4952191;28;20694;-87
2023/01/10 12:05:08;;;;;;;3.37;1.30;;;;;;;;;;4952137;28;20191;-88
2023/01/10 12:08:24;;;;;;;7.37;1.77;;;;;;;;;;4952395;28;20195;-88
2023/01/10 12:11:31;;;;;;;7.30;1.47;;;;;;;;;;4951905;28;20214;-88
2023/01/10 12:14:35;;;;;;;3.27;1.00;;;;;;;;;;4952188;28;20183;-88
2023/01/10 12:17:39;;;;;;;4.00;1.33;;;;;;;;;;4974478;28;20562;-88
2023/01/10 12:20:47;;;;;;;5.73;1.60;;;;;;;;;;4951787;28;20222;-89
2023/01/10 12:23:53;;;;;;;2.07;1.10;;;;;;;;;;4952174;28;20175;-88
2023/01/10 12:27:01;;;;;;;5.80;1.60;;;;;;;;;;4951968;28;20639;-88
2023/01/10 12:30:16;;;;;;;6.67;1.33;;;;;;;;;;4973870;28;20179;-88
2023/01/10 12:33:24;;;;;;;6.00;1.47;;;;;;;;;;4962747;28;20180;-89
2023/01/10 12:36:41;;;;;;;6.30;1.60;;;;;;;;;;4963015;28;20187;-88
2023/01/10 12:39:54;;;;;;;2.97;1.17;;;;;;;;;;4955642;28;20211;-88
2023/01/10 12:46:49;;;;;;;4.57;1.50;;;;;;;;;;4966256;28;20558;-88
2023/01/10 12:50:13;;;;;;;6.20;1.27;;;;;;;;;;4977981;28;20175;-88
2023/01/10 12:53:27;;;;;;;3.23;1.00;;;;;;;;;;4966654;28;20179;-88
2023/01/10 12:56:31;;;;;;;8.17;1.37;;;;;;;;;;4956573;28;20659;-89
2023/01/10 12:59:40;;;;;;;4.33;1.20;;;;;;;;;;4955921;28;20203;-89
2023/01/10 13:02:46;;;;;;;4.27;1.53;;;;;;;;;;4955703;28;20171;-89
2023/01/10 13:05:51;;;;;;;7.73;1.40;;;;;;;;;;4966425;28;20174;-88
2023/01/10 13:08:57;;;;;;;5.47;1.33;;;;;;;;;;4955554;28;20183;-89
2023/01/10 13:12:13;;;;;;;4.67;2.20;;;;;;;;;;4966828;28;20223;-89
2023/01/10 13:15:40;;;;;;;9.23;4.13;;;;;;;;;;4977840;28;20195;-88
2023/01/10 13:18:59;;;;;;;5.23;1.60;;;;;;;;;;4955857;28;20183;-89
2023/01/10 13:22:21;;;;;;;6.50;1.23;;;;;;;;;;4955577;28;20215;-88
2023/01/10 13:25:34;;;;;;;5.50;1.03;;;;;;;;;;4966878;28;20183;-88
2023/01/10 13:28:51;;;;;;;7.50;1.27;;;;;;;;;;4966196;28;20187;-88
2023/01/10 13:32:14;;;;;;;5.33;1.57;;;;;;;;;;4955166;28;20215;-88
2023/01/10 13:35:19;;;;;;;3.17;1.00;;;;;;;;;;4954913;28;20183;-89
2023/01/10 13:38:36;;;;;;;6.73;2.33;;;;;;;;;;4966141;28;20179;-89
2023/01/10 13:45:28;;;;;;;5.17;1.80;;;;;;;;;;4976190;28;20215;-89
2023/01/10 13:48:32;;;;;;;5.83;1.73;;;;;;;;;;4953445;28;20179;-89
2023/01/10 13:51:38;;;;;;;5.40;1.47;;;;;;;;;;4953585;28;20620;-89
2023/01/10 13:54:56;;;;;;;4.90;1.60;;;;;;;;;;4953560;28;20183;-89
2023/01/10 13:58:03;;;;;;;3.80;1.47;;;;;;;;;;4953421;28;20180;-88
2023/01/10 14:05:05;;;;;;;6.43;1.27;;;;;;;;;;4959366;28;20199;-89
2023/01/10 14:08:14;;;;;;;6.60;2.63;;;;;;;;;;4953051;28;20175;-89
2023/01/10 14:11:21;;;;;;;6.30;3.33;;;;;;;;;;4964108;28;20215;-89
2023/01/10 14:14:36;;;;;;;5.83;1.40;;;;;;;;;;4953046;28;20179;-89
2023/01/10 14:17:40;;;;;;;3.87;1.37;;;;;;;;;;4964066;28;20670;-89
2023/01/10 14:20:56;;;;;;;3.90;1.20;;;;;;;;;;4963658;28;20226;-89
2023/01/10 14:24:00;;;;;;;6.23;1.27;;;;;;;;;;4963606;28;20183;-89
2023/01/10 14:27:06;;;;;;;7.13;6.47;;;;;;;;;;4963635;28;20183;-88
2023/01/10 14:30:24;;;;;;;3.77;1.40;;;;;;;;;;4963518;28;20175;-89
2023/01/10 14:33:29;;;;;;;6.63;2.00;;;;;;;;;;4963575;28;20635;-88
2023/01/10 14:36:44;;;;;;;5.30;1.60;;;;;;;;;;4952704;28;20179;-89
2023/01/10 14:39:51;;;;;;;4.33;1.30;;;;;;;;;;4963301;28;20215;-88
2023/01/10 14:42:58;;;;;;;10.00;5.37;;;;;;;;;;4974438;28;20198;-88
2023/01/10 14:46:08;;;;;;;12.60;8.13;;;;;;;;;;5091203;28;21278;-89
2023/01/10 14:49:34;;;;;;;11.13;2.80;;;;;;;;;;5055884;28;20187;-87
2023/01/10 14:52:41;;;;;;;4.73;2.10;;;;;;;;;;5047582;28;20180;-88
2023/01/10 14:55:45;;;;;;;9.47;3.57;;;;;;;;;;5058646;28;20642;-88
2023/01/10 14:58:49;;;;;;;8.77;3.43;;;;;;;;;;5047284;28;20535;-88
2023/01/10 15:01:59;;;;;;;4.27;1.50;;;;;;;;;;5035673;28;20583;-88
2023/01/10 15:05:14;;;;;;;2.27;1.43;;;;;;;;;;5035496;28;20203;-88
2023/01/10 15:08:27;;;;;;;6.07;1.67;;;;;;;;;;5047201;28;20184;-88
2023/01/10 15:11:32;;;;;;;2.77;1.23;;;;;;;;;;5046873;28;20207;-88
2023/01/10 15:14:36;;;;;;;4.10;1.13;;;;;;;;;;5058404;28;20643;-88
2023/01/10 15:17:42;;;;;;;3.03;1.20;;;;;;;;;;5058045;28;20172;-88
2023/01/10 15:20:46;;;;;;;4.20;1.20;;;;;;;;;;5046419;28;20216;-88
2023/01/10 15:23:50;;;;;;;3.37;1.13;;;;;;;;;;5035762;28;20562;-88
2023/01/10 15:26:58;;;;;;;2.60;0.93;;;;;;;;;;5046940;28;20179;-88
2023/01/10 15:30:07;;;;;;;7.27;3.53;;;;;;;;;;5047144;28;20172;-87
2023/01/10 15:33:14;;;;;;;9.13;3.70;;;;;;;;;;5047284;28;20172;-88
2023/01/10 15:36:20;;;;;;;4.77;1.00;;;;;;;;;;5047410;28;20172;-88
2023/01/10 15:39:35;;;;;;;4.87;1.37;;;;;;;;;;5036437;28;20176;-88
2023/01/10 15:42:39;;;;;;;5.37;1.83;;;;;;;;;;5047972;28;20180;-87
2023/01/10 15:45:45;;;;;;;10.93;4.47;;;;;;;;;;5047169;28;20574;-88
2023/01/10 15:49:01;;;;;;;26.80;13.53;;;;;;;;;;5046979;28;20179;-88
2023/01/10 15:52:19;;;;;;;14.27;7.17;;;;;;;;;;5047343;28;20564;-86
2023/01/10 15:56:05;;;;;;;4.87;1.50;;;;;;;;;;5043360;28;20176;-88
2023/01/10 16:03:34;;;;;;;4.47;2.87;;;;;;;;;;5045237;28;20173;-88
2023/01/10 16:06:38;;;;;;;11.67;6.80;;;;;;;;;;5045115;28;20188;-88
2023/01/10 16:09:48;;;;;;;69.80;39.43;;;;;;;;;;5022012;28;20192;-88
2023/01/10 16:13:25;;;;;;;25.53;13.33;;;;;;;;;;5022119;28;20181;-88
2023/01/10 16:16:30;;;;;;;15.57;9.27;;;;;;;;;;5033459;28;20176;-88
2023/01/10 16:19:34;;;;;;;7.00;4.63;;;;;;;;;;5033002;28;20176;-88
2023/01/10 16:22:38;;;;;;;6.10;2.27;;;;;;;;;;5033301;28;20176;-88
2023/01/10 16:25:45;;;;;;;4.40;1.73;;;;;;;;;;5032831;28;20204;-88
2023/01/10 16:28:50;;;;;;;3.70;1.80;;;;;;;;;;5032695;28;20559;-89
2023/01/10 16:31:54;;;;;;;7.10;1.77;;;;;;;;;;5032800;28;20215;-88
2023/01/10 16:35:01;;;;;;;5.03;2.47;;;;;;;;;;5032753;28;20177;-88
2023/01/10 16:38:05;;;;;;;5.67;3.50;;;;;;;;;;5044060;28;20173;-88
2023/01/10 16:44:38;;;;;;;5.07;4.37;;;;;;;;;;5024263;28;20216;-88
2023/01/10 16:47:42;;;;;;;4.40;2.50;;;;;;;;;;5021204;28;20180;-88
2023/01/10 16:50:47;;;;;;;4.63;2.20;;;;;;;;;;5042956;28;20211;-88
2023/01/10 16:53:51;;;;;;;3.37;2.43;;;;;;;;;;5043624;28;20195;-88
2023/01/10 16:56:56;;;;;;;5.27;1.90;;;;;;;;;;5043159;28;20180;-88
2023/01/10 17:00:00;;;;;;;3.67;1.80;;;;;;;;;;5031345;28;20184;-89
2023/01/10 17:03:10;;;;;;;13.07;7.40;;;;;;;;;;5020007;28;20172;-88
2023/01/10 17:06:15;;;;;;;23.20;11.17;;;;;;;;;;5031565;28;20687;-88
2023/01/10 17:09:23;;;;;;;12.80;4.93;;;;;;;;;;5030893;28;20188;-88
2023/01/10 17:12:33;;;;;;;30.90;14.37;;;;;;;;;;5042414;28;20207;-88
2023/01/10 17:15:37;;;;;;;36.07;17.40;;;;;;;;;;5031150;28;20181;-88
2023/01/10 17:18:42;;;;;;;12.30;6.43;;;;;;;;;;5031393;28;20184;-87
2023/01/10 17:21:46;;;;;;;6.60;2.30;;;;;;;;;;5042001;28;20221;-87
2023/01/10 17:24:50;;;;;;;4.93;1.40;;;;;;;;;;5030808;28;20200;-88
2023/01/10 17:27:54;;;;;;;2.93;1.20;;;;;;;;;;5031041;28;20184;-88
2023/01/10 17:30:58;;;;;;;5.13;1.73;;;;;;;;;;5055213;28;20220;-88
2023/01/10 17:34:03;;;;;;;3.40;1.30;;;;;;;;;;5020269;28;20176;-88
2023/01/10 17:37:07;;;;;;;5.80;1.40;;;;;;;;;;5042715;28;20192;-88
2023/01/10 17:40:11;;;;;;;4.13;1.30;;;;;;;;;;5031323;28;20199;-88
2023/01/10 17:43:16;;;;;;;4.83;1.17;;;;;;;;;;5031060;28;20172;-89
2023/01/10 17:46:21;;;;;;;3.90;1.77;;;;;;;;;;5042782;28;20691;-88
2023/01/10 17:49:25;;;;;;;7.43;1.67;;;;;;;;;;5031210;28;20559;-88
2023/01/10 17:52:29;;;;;;;5.10;1.60;;;;;;;;;;5030496;28;20212;-89
2023/01/10 17:55:33;;;;;;;4.63;1.20;;;;;;;;;;5030813;28;20169;-88
2023/01/10 17:58:37;;;;;;;5.77;1.43;;;;;;;;;;5019546;28;20184;-88
2023/01/10 18:01:41;;;;;;;3.37;1.27;;;;;;;;;;5019173;28;20216;-89
2023/01/10 18:04:46;;;;;;;21.60;7.03;;;;;;;;;;5041943;28;20196;-88
2023/01/10 18:07:50;;;;;;;19.70;7.47;;;;;;;;;;5019769;28;20184;-88
2023/01/10 18:10:59;;;;;;;14.40;4.73;;;;;;;;;;5019415;28;20207;-87
2023/01/10 18:14:34;;;;;;;6.13;2.80;;;;;;;;;;5041983;28;20537;-87
2023/01/10 18:17:27;;;;;;;5.70;2.90;;;;;;;;;;5041804;28;20180;-88
2023/01/10 18:20:31;;;;;;;5.53;1.97;;;;;;;;;;5030616;28;20179;-88
2023/01/10 18:23:35;;;;;;;4.53;1.47;;;;;;;;;;5031198;28;20184;-88
2023/01/10 18:26:40;;;;;;;4.00;1.10;;;;;;;;;;5030881;28;20204;-88
2023/01/10 18:29:44;;;;;;;3.73;1.37;;;;;;;;;;5042388;28;20184;-88
2023/01/10 18:32:50;;;;;;;10.80;1.50;;;;;;;;;;5033048;28;20559;-88
2023/01/10 18:35:55;;;;;;;4.57;1.30;;;;;;;;;;5044935;28;20172;-87
2023/01/10 18:38:59;;;;;;;4.13;1.50;;;;;;;;;;5036206;28;20555;-87
2023/01/10 18:42:04;;;;;;;3.70;1.30;;;;;;;;;;5025858;28;20579;-87
2023/01/10 18:45:08;;;;;;;2.90;1.33;;;;;;;;;;5037023;28;20220;-87
2023/01/10 18:48:15;;;;;;;2.93;1.53;;;;;;;;;;5047535;28;20551;-89
2023/01/10 18:51:19;;;;;;;3.10;1.30;;;;;;;;;;5046705;28;20985;-88
2023/01/10 18:54:22;;;;;;;8.97;1.57;;;;;;;;;;5025691;28;20906;-88
2023/01/10 18:57:27;;;;;;;6.47;1.53;;;;;;;;;;5036057;28;20548;-88
2023/01/10 19:00:34;;;;;;;5.20;1.17;;;;;;;;;;5047849;28;20551;-88
2023/01/10 19:03:41;;;;;;;5.00;1.90;;;;;;;;;;5026314;28;20555;-88
2023/01/10 19:06:46;;;;;;;5.97;1.47;;;;;;;;;;5052385;28;20204;-88
2023/01/10 19:09:50;;;;;;;5.57;1.30;;;;;;;;;;5035673;28;20558;-87
2023/01/10 19:12:55;;;;;;;5.17;1.40;;;;;;;;;;5024859;28;20547;-87
2023/01/10 19:16:14;;;;;;;5.30;1.67;;;;;;;;;;5024996;28;20173;-87
2023/01/10 19:19:18;;;;;;;4.43;1.40;;;;;;;;;;5033589;28;20551;-87